sensor_id;sensor_type;location;lat;lon;timestamp;P1;durP1;ratioP1;P2;durP2;ratioP2
11042;SDS011;5574;48.786;10.120;2023-12-28T00:01:14;7.70;;;4.93;;
11042;SDS011;5574;48.786;10.120;2023-12-28T00:03:40;5.37;;;4.70;;
11042;SDS011;5574;48.786;10.120;2023-12-28T00:06:08;6.33;;;5.17;;
11042;SDS011;5574;48.786;10.120;2023-12-28T00:08:35;7.07;;;5.20;;
11042;SDS011;5574;48.786;10.120;2023-12-28T00:11:01;5.40;;;4.90;;
11042;SDS011;5574;48.786;10.120;2023-12-28T00:13:28;6.70;;;5.07;;
11042;SDS011;5574;48.786;10.120;2023-12-28T00:15:55;6.30;;;5.37;;
11042;SDS011;5574;48.786;10.120;2023-12-28T00:18:22;6.10;;;4.70;;
11042;SDS011;5574;48.786;10.120;2023-12-28T00:20:48;7.23;;;5.17;;
11042;SDS011;5574;48.786;10.120;2023-12-28T00:23:17;6.27;;;5.00;;
11042;SDS011;5574;48.786;10.120;2023-12-28T00:25:45;5.97;;;5.20;;
11042;SDS011;5574;48.786;10.120;2023-12-28T00:28:11;7.10;;;5.17;;
11042;SDS011;5574;48.786;10.120;2023-12-28T00:30:38;6.37;;;5.73;;
11042;SDS011;5574;48.786;10.120;2023-12-28T00:33:05;7.17;;;5.60;;
11042;SDS011;5574;48.786;10.120;2023-12-28T00:35:31;6.23;;;5.40;;
11042;SDS011;5574;48.786;10.120;2023-12-28T00:37:58;6.13;;;5.00;;
11042;SDS011;5574;48.786;10.120;2023-12-28T00:40:26;6.60;;;5.90;;
11042;SDS011;5574;48.786;10.120;2023-12-28T00:42:53;5.87;;;5.27;;
11042;SDS011;5574;48.786;10.120;2023-12-28T00:45:19;6.17;;;5.20;;
11042;SDS011;5574;48.786;10.120;2023-12-28T00:47:46;6.17;;;5.47;;
11042;SDS011;5574;48.786;10.120;2023-12-28T00:50:13;6.07;;;5.47;;
11042;SDS011;5574;48.786;10.120;2023-12-28T00:52:40;6.50;;;5.60;;
11042;SDS011;5574;48.786;10.120;2023-12-28T00:55:07;5.53;;;4.80;;
11042;SDS011;5574;48.786;10.120;2023-12-28T00:57:35;5.30;;;4.80;;
11042;SDS011;5574;48.786;10.120;2023-12-28T01:00:02;5.27;;;4.83;;
11042;SDS011;5574;48.786;10.120;2023-12-28T01:02:29;5.47;;;4.97;;
11042;SDS011;5574;48.786;10.120;2023-12-28T01:04:56;5.83;;;5.20;;
11042;SDS011;5574;48.786;10.120;2023-12-28T01:07:23;5.83;;;5.07;;
11042;SDS011;5574;48.786;10.120;2023-12-28T01:09:49;5.73;;;5.10;;
11042;SDS011;5574;48.786;10.120;2023-12-28T01:12:16;5.23;;;4.73;;
11042;SDS011;5574;48.786;10.120;2023-12-28T01:14:44;6.00;;;4.77;;
11042;SDS011;5574;48.786;10.120;2023-12-28T01:17:11;6.17;;;4.90;;
11042;SDS011;5574;48.786;10.120;2023-12-28T01:19:38;5.33;;;4.27;;
11042;SDS011;5574;48.786;10.120;2023-12-28T01:22:04;5.87;;;5.00;;
11042;SDS011;5574;48.786;10.120;2023-12-28T01:24:31;5.20;;;4.60;;
11042;SDS011;5574;48.786;10.120;2023-12-28T01:26:57;5.03;;;4.47;;
11042;SDS011;5574;48.786;10.120;2023-12-28T01:29:24;6.07;;;4.77;;
11042;SDS011;5574;48.786;10.120;2023-12-28T01:31:52;5.77;;;4.50;;
11042;SDS011;5574;48.786;10.120;2023-12-28T01:34:19;4.77;;;4.37;;
11042;SDS011;5574;48.786;10.120;2023-12-28T01:36:45;5.37;;;4.80;;
11042;SDS011;5574;48.786;10.120;2023-12-28T01:39:12;4.93;;;4.43;;
11042;SDS011;5574;48.786;10.120;2023-12-28T01:41:40;5.00;;;4.33;;
11042;SDS011;5574;48.786;10.120;2023-12-28T01:44:07;5.60;;;4.60;;
11042;SDS011;5574;48.786;10.120;2023-12-28T01:46:33;5.30;;;4.40;;
11042;SDS011;5574;48.786;10.120;2023-12-28T01:49:01;4.87;;;4.47;;
11042;SDS011;5574;48.786;10.120;2023-12-28T01:51:30;4.47;;;4.07;;
11042;SDS011;5574;48.786;10.120;2023-12-28T01:53:58;4.60;;;4.00;;
11042;SDS011;5574;48.786;10.120;2023-12-28T01:56:25;4.50;;;4.03;;
11042;SDS011;5574;48.786;10.120;2023-12-28T01:58:52;4.20;;;3.80;;
11042;SDS011;5574;48.786;10.120;2023-12-28T02:01:19;5.07;;;4.03;;
11042;SDS011;5574;48.786;10.120;2023-12-28T02:03:47;6.07;;;4.07;;
11042;SDS011;5574;48.786;10.120;2023-12-28T02:06:15;5.00;;;4.50;;
11042;SDS011;5574;48.786;10.120;2023-12-28T02:08:42;6.03;;;4.50;;
11042;SDS011;5574;48.786;10.120;2023-12-28T02:11:09;4.57;;;3.87;;
11042;SDS011;5574;48.786;10.120;2023-12-28T02:13:36;4.70;;;4.03;;
11042;SDS011;5574;48.786;10.120;2023-12-28T02:16:04;4.33;;;3.93;;
11042;SDS011;5574;48.786;10.120;2023-12-28T02:18:37;10.27;;;4.20;;
11042;SDS011;5574;48.786;10.120;2023-12-28T02:21:09;5.10;;;3.93;;
11042;SDS011;5574;48.786;10.120;2023-12-28T02:23:39;4.67;;;4.13;;
11042;SDS011;5574;48.786;10.120;2023-12-28T02:26:13;4.57;;;4.10;;
11042;SDS011;5574;48.786;10.120;2023-12-28T02:28:39;4.87;;;4.17;;
11042;SDS011;5574;48.786;10.120;2023-12-28T02:31:06;4.80;;;4.33;;
11042;SDS011;5574;48.786;10.120;2023-12-28T02:33:38;4.47;;;3.97;;
11042;SDS011;5574;48.786;10.120;2023-12-28T02:36:13;4.23;;;3.83;;
11042;SDS011;5574;48.786;10.120;2023-12-28T02:38:44;4.57;;;4.17;;
11042;SDS011;5574;48.786;10.120;2023-12-28T02:41:13;4.77;;;4.23;;
11042;SDS011;5574;48.786;10.120;2023-12-28T02:43:40;4.23;;;3.83;;
11042;SDS011;5574;48.786;10.120;2023-12-28T02:46:07;5.50;;;4.43;;
11042;SDS011;5574;48.786;10.120;2023-12-28T02:48:33;4.83;;;3.90;;
11042;SDS011;5574;48.786;10.120;2023-12-28T02:51:00;5.10;;;3.77;;
11042;SDS011;5574;48.786;10.120;2023-12-28T02:53:27;4.80;;;4.13;;
11042;SDS011;5574;48.786;10.120;2023-12-28T02:55:53;4.50;;;3.70;;
11042;SDS011;5574;48.786;10.120;2023-12-28T02:58:21;6.30;;;4.90;;
11042;SDS011;5574;48.786;10.120;2023-12-28T03:00:48;4.30;;;3.90;;
11042;SDS011;5574;48.786;10.120;2023-12-28T03:03:14;4.20;;;3.73;;
11042;SDS011;5574;48.786;10.120;2023-12-28T03:05:41;4.50;;;4.10;;
11042;SDS011;5574;48.786;10.120;2023-12-28T03:08:08;4.50;;;3.90;;
11042;SDS011;5574;48.786;10.120;2023-12-28T03:10:34;4.17;;;3.77;;
11042;SDS011;5574;48.786;10.120;2023-12-28T03:13:01;4.83;;;3.90;;
11042;SDS011;5574;48.786;10.120;2023-12-28T03:15:29;4.87;;;3.93;;
11042;SDS011;5574;48.786;10.120;2023-12-28T03:17:56;4.73;;;3.90;;
11042;SDS011;5574;48.786;10.120;2023-12-28T03:20:22;4.83;;;4.07;;
11042;SDS011;5574;48.786;10.120;2023-12-28T03:22:49;5.23;;;4.10;;
11042;SDS011;5574;48.786;10.120;2023-12-28T03:25:16;4.70;;;3.70;;
11042;SDS011;5574;48.786;10.120;2023-12-28T03:27:42;5.17;;;3.73;;
11042;SDS011;5574;48.786;10.120;2023-12-28T03:30:10;4.77;;;3.80;;
11042;SDS011;5574;48.786;10.120;2023-12-28T03:32:38;4.40;;;4.00;;
11042;SDS011;5574;48.786;10.120;2023-12-28T03:35:05;4.43;;;4.03;;
11042;SDS011;5574;48.786;10.120;2023-12-28T03:37:33;4.90;;;3.90;;
11042;SDS011;5574;48.786;10.120;2023-12-28T03:39:59;4.10;;;3.70;;
11042;SDS011;5574;48.786;10.120;2023-12-28T03:42:26;5.00;;;3.87;;
11042;SDS011;5574;48.786;10.120;2023-12-28T03:44:53;4.60;;;3.60;;
11042;SDS011;5574;48.786;10.120;2023-12-28T03:47:19;4.03;;;3.63;;
11042;SDS011;5574;48.786;10.120;2023-12-28T03:49:47;4.10;;;3.70;;
11042;SDS011;5574;48.786;10.120;2023-12-28T03:52:14;5.70;;;4.07;;
11042;SDS011;5574;48.786;10.120;2023-12-28T03:54:41;4.03;;;3.60;;
11042;SDS011;5574;48.786;10.120;2023-12-28T03:57:07;3.53;;;3.23;;
11042;SDS011;5574;48.786;10.120;2023-12-28T03:59:35;3.80;;;3.50;;
11042;SDS011;5574;48.786;10.120;2023-12-28T04:02:02;4.10;;;3.30;;
11042;SDS011;5574;48.786;10.120;2023-12-28T04:04:29;3.90;;;3.50;;
11042;SDS011;5574;48.786;10.120;2023-12-28T04:06:57;4.43;;;3.70;;
11042;SDS011;5574;48.786;10.120;2023-12-28T04:09:24;3.97;;;3.40;;
11042;SDS011;5574;48.786;10.120;2023-12-28T04:11:50;4.40;;;3.73;;
11042;SDS011;5574;48.786;10.120;2023-12-28T04:14:17;3.97;;;3.57;;
11042;SDS011;5574;48.786;10.120;2023-12-28T04:16:44;3.83;;;3.50;;
11042;SDS011;5574;48.786;10.120;2023-12-28T04:19:11;3.93;;;3.57;;
11042;SDS011;5574;48.786;10.120;2023-12-28T04:21:37;4.47;;;3.70;;
11042;SDS011;5574;48.786;10.120;2023-12-28T04:24:06;4.70;;;4.13;;
11042;SDS011;5574;48.786;10.120;2023-12-28T04:26:32;3.97;;;3.60;;
11042;SDS011;5574;48.786;10.120;2023-12-28T04:28:59;4.17;;;3.70;;
11042;SDS011;5574;48.786;10.120;2023-12-28T04:31:26;4.30;;;3.90;;
11042;SDS011;5574;48.786;10.120;2023-12-28T04:33:53;5.23;;;4.17;;
11042;SDS011;5574;48.786;10.120;2023-12-28T04:36:19;4.37;;;3.80;;
11042;SDS011;5574;48.786;10.120;2023-12-28T04:38:46;6.00;;;3.63;;
11042;SDS011;5574;48.786;10.120;2023-12-28T04:41:14;4.90;;;3.83;;
11042;SDS011;5574;48.786;10.120;2023-12-28T04:43:40;3.77;;;3.43;;
11042;SDS011;5574;48.786;10.120;2023-12-28T04:46:07;4.93;;;3.90;;
11042;SDS011;5574;48.786;10.120;2023-12-28T04:48:34;4.27;;;3.70;;
11042;SDS011;5574;48.786;10.120;2023-12-28T04:51:01;5.13;;;3.67;;
11042;SDS011;5574;48.786;10.120;2023-12-28T04:53:28;3.90;;;3.60;;
11042;SDS011;5574;48.786;10.120;2023-12-28T04:55:55;4.63;;;3.90;;
11042;SDS011;5574;48.786;10.120;2023-12-28T04:58:23;9.30;;;5.20;;
11042;SDS011;5574;48.786;10.120;2023-12-28T05:00:50;4.27;;;3.87;;
11042;SDS011;5574;48.786;10.120;2023-12-28T05:03:17;4.50;;;3.80;;
11042;SDS011;5574;48.786;10.120;2023-12-28T05:05:43;4.50;;;3.97;;
11042;SDS011;5574;48.786;10.120;2023-12-28T05:08:10;4.50;;;3.83;;
11042;SDS011;5574;48.786;10.120;2023-12-28T05:10:37;5.27;;;3.83;;
11042;SDS011;5574;48.786;10.120;2023-12-28T05:13:03;4.90;;;4.07;;
11042;SDS011;5574;48.786;10.120;2023-12-28T05:15:31;4.53;;;3.63;;
11042;SDS011;5574;48.786;10.120;2023-12-28T05:17:58;5.13;;;3.57;;
11042;SDS011;5574;48.786;10.120;2023-12-28T05:20:25;4.33;;;3.70;;
11042;SDS011;5574;48.786;10.120;2023-12-28T05:22:51;4.10;;;3.70;;
11042;SDS011;5574;48.786;10.120;2023-12-28T05:25:18;4.20;;;3.80;;
11042;SDS011;5574;48.786;10.120;2023-12-28T05:27:45;4.13;;;3.73;;
11042;SDS011;5574;48.786;10.120;2023-12-28T05:30:11;5.07;;;3.90;;
11042;SDS011;5574;48.786;10.120;2023-12-28T05:32:40;3.53;;;3.23;;
11042;SDS011;5574;48.786;10.120;2023-12-28T05:35:06;5.10;;;3.43;;
11042;SDS011;5574;48.786;10.120;2023-12-28T05:37:33;4.30;;;3.53;;
11042;SDS011;5574;48.786;10.120;2023-12-28T05:40:00;4.40;;;3.63;;
11042;SDS011;5574;48.786;10.120;2023-12-28T05:42:27;3.20;;;3.00;;
11042;SDS011;5574;48.786;10.120;2023-12-28T05:44:53;3.50;;;3.20;;
11042;SDS011;5574;48.786;10.120;2023-12-28T05:47:20;4.07;;;3.10;;
11042;SDS011;5574;48.786;10.120;2023-12-28T05:49:48;5.70;;;3.43;;
11042;SDS011;5574;48.786;10.120;2023-12-28T05:52:15;3.73;;;2.87;;
11042;SDS011;5574;48.786;10.120;2023-12-28T05:54:43;3.77;;;3.20;;
11042;SDS011;5574;48.786;10.120;2023-12-28T05:57:10;3.70;;;3.17;;
11042;SDS011;5574;48.786;10.120;2023-12-28T05:59:37;4.17;;;3.43;;
11042;SDS011;5574;48.786;10.120;2023-12-28T06:02:05;3.83;;;3.40;;
11042;SDS011;5574;48.786;10.120;2023-12-28T06:04:32;3.50;;;3.20;;
11042;SDS011;5574;48.786;10.120;2023-12-28T06:07:01;3.97;;;3.30;;
11042;SDS011;5574;48.786;10.120;2023-12-28T06:09:28;4.53;;;3.57;;
11042;SDS011;5574;48.786;10.120;2023-12-28T06:11:55;5.47;;;3.77;;
11042;SDS011;5574;48.786;10.120;2023-12-28T06:14:22;4.17;;;3.47;;
11042;SDS011;5574;48.786;10.120;2023-12-28T06:16:48;6.60;;;4.03;;
11042;SDS011;5574;48.786;10.120;2023-12-28T06:19:15;4.20;;;3.80;;
11042;SDS011;5574;48.786;10.120;2023-12-28T06:21:42;6.00;;;4.20;;
11042;SDS011;5574;48.786;10.120;2023-12-28T06:24:10;4.97;;;3.50;;
11042;SDS011;5574;48.786;10.120;2023-12-28T06:26:38;3.90;;;3.50;;
11042;SDS011;5574;48.786;10.120;2023-12-28T06:29:06;5.37;;;3.50;;
11042;SDS011;5574;48.786;10.120;2023-12-28T06:31:32;4.27;;;3.60;;
11042;SDS011;5574;48.786;10.120;2023-12-28T06:34:01;3.63;;;3.23;;
11042;SDS011;5574;48.786;10.120;2023-12-28T06:36:27;4.17;;;3.50;;
11042;SDS011;5574;48.786;10.120;2023-12-28T06:38:54;3.97;;;3.57;;
11042;SDS011;5574;48.786;10.120;2023-12-28T06:41:22;3.90;;;3.50;;
11042;SDS011;5574;48.786;10.120;2023-12-28T06:43:49;4.77;;;3.10;;
11042;SDS011;5574;48.786;10.120;2023-12-28T06:46:16;7.67;;;3.60;;
11042;SDS011;5574;48.786;10.120;2023-12-28T06:48:43;3.73;;;3.20;;
11042;SDS011;5574;48.786;10.120;2023-12-28T06:51:11;4.20;;;3.40;;
11042;SDS011;5574;48.786;10.120;2023-12-28T06:53:43;4.33;;;3.27;;
11042;SDS011;5574;48.786;10.120;2023-12-28T06:56:10;3.87;;;3.43;;
11042;SDS011;5574;48.786;10.120;2023-12-28T06:58:39;3.60;;;3.30;;
11042;SDS011;5574;48.786;10.120;2023-12-28T07:01:06;3.50;;;3.20;;
11042;SDS011;5574;48.786;10.120;2023-12-28T07:03:33;3.97;;;3.33;;
11042;SDS011;5574;48.786;10.120;2023-12-28T07:06:00;3.83;;;3.43;;
11042;SDS011;5574;48.786;10.120;2023-12-28T07:08:28;5.83;;;3.40;;
11042;SDS011;5574;48.786;10.120;2023-12-28T07:10:55;3.27;;;2.97;;
11042;SDS011;5574;48.786;10.120;2023-12-28T07:13:22;4.07;;;3.40;;
11042;SDS011;5574;48.786;10.120;2023-12-28T07:15:50;4.17;;;3.27;;
11042;SDS011;5574;48.786;10.120;2023-12-28T07:18:18;3.77;;;3.37;;
11042;SDS011;5574;48.786;10.120;2023-12-28T07:20:45;4.13;;;3.70;;
11042;SDS011;5574;48.786;10.120;2023-12-28T07:23:12;6.40;;;3.97;;
11042;SDS011;5574;48.786;10.120;2023-12-28T07:25:39;4.30;;;3.90;;
11042;SDS011;5574;48.786;10.120;2023-12-28T07:28:07;4.30;;;3.90;;
11042;SDS011;5574;48.786;10.120;2023-12-28T07:30:34;4.17;;;3.70;;
11042;SDS011;5574;48.786;10.120;2023-12-28T07:33:02;5.33;;;4.10;;
11042;SDS011;5574;48.786;10.120;2023-12-28T07:35:30;4.40;;;3.90;;
11042;SDS011;5574;48.786;10.120;2023-12-28T07:37:56;5.03;;;3.57;;
11042;SDS011;5574;48.786;10.120;2023-12-28T07:40:23;4.60;;;4.00;;
11042;SDS011;5574;48.786;10.120;2023-12-28T07:42:50;5.60;;;4.37;;
11042;SDS011;5574;48.786;10.120;2023-12-28T07:45:17;4.40;;;3.83;;
11042;SDS011;5574;48.786;10.120;2023-12-28T07:47:48;4.00;;;3.60;;
11042;SDS011;5574;48.786;10.120;2023-12-28T07:50:16;5.17;;;3.97;;
11042;SDS011;5574;48.786;10.120;2023-12-28T07:52:43;5.00;;;3.80;;
11042;SDS011;5574;48.786;10.120;2023-12-28T07:55:10;4.60;;;3.73;;
11042;SDS011;5574;48.786;10.120;2023-12-28T07:57:37;7.17;;;5.50;;
11042;SDS011;5574;48.786;10.120;2023-12-28T08:00:04;4.10;;;3.70;;
11042;SDS011;5574;48.786;10.120;2023-12-28T08:02:32;4.27;;;3.70;;
11042;SDS011;5574;48.786;10.120;2023-12-28T08:04:59;4.70;;;3.30;;
11042;SDS011;5574;48.786;10.120;2023-12-28T08:07:27;3.73;;;3.30;;
11042;SDS011;5574;48.786;10.120;2023-12-28T08:09:54;3.80;;;3.50;;
11042;SDS011;5574;48.786;10.120;2023-12-28T08:12:20;3.73;;;3.40;;
11042;SDS011;5574;48.786;10.120;2023-12-28T08:14:49;4.07;;;3.60;;
11042;SDS011;5574;48.786;10.120;2023-12-28T08:17:16;4.30;;;3.40;;
11042;SDS011;5574;48.786;10.120;2023-12-28T08:19:43;4.00;;;3.33;;
11042;SDS011;5574;48.786;10.120;2023-12-28T08:22:09;5.50;;;4.00;;
11042;SDS011;5574;48.786;10.120;2023-12-28T08:24:37;4.27;;;3.73;;
11042;SDS011;5574;48.786;10.120;2023-12-28T08:27:04;5.20;;;3.97;;
11042;SDS011;5574;48.786;10.120;2023-12-28T08:29:31;4.57;;;3.77;;
11042;SDS011;5574;48.786;10.120;2023-12-28T08:31:58;4.20;;;3.80;;
11042;SDS011;5574;48.786;10.120;2023-12-28T08:34:25;7.30;;;3.70;;
11042;SDS011;5574;48.786;10.120;2023-12-28T08:36:53;4.63;;;4.07;;
11042;SDS011;5574;48.786;10.120;2023-12-28T08:39:19;4.93;;;3.97;;
11042;SDS011;5574;48.786;10.120;2023-12-28T08:41:47;6.03;;;4.20;;
11042;SDS011;5574;48.786;10.120;2023-12-28T08:44:14;4.83;;;4.20;;
11042;SDS011;5574;48.786;10.120;2023-12-28T08:46:41;7.30;;;4.10;;
11042;SDS011;5574;48.786;10.120;2023-12-28T08:49:08;6.33;;;4.17;;
11042;SDS011;5574;48.786;10.120;2023-12-28T08:51:34;4.70;;;4.30;;
11042;SDS011;5574;48.786;10.120;2023-12-28T08:54:01;6.53;;;5.33;;
11042;SDS011;5574;48.786;10.120;2023-12-28T08:56:28;7.87;;;5.50;;
11042;SDS011;5574;48.786;10.120;2023-12-28T08:58:56;6.07;;;5.00;;
11042;SDS011;5574;48.786;10.120;2023-12-28T09:01:23;8.17;;;5.53;;
11042;SDS011;5574;48.786;10.120;2023-12-28T09:03:51;7.07;;;5.00;;
11042;SDS011;5574;48.786;10.120;2023-12-28T09:06:19;5.30;;;4.77;;
11042;SDS011;5574;48.786;10.120;2023-12-28T09:08:47;5.83;;;5.00;;
11042;SDS011;5574;48.786;10.120;2023-12-28T09:11:15;8.33;;;5.13;;
11042;SDS011;5574;48.786;10.120;2023-12-28T09:13:42;4.50;;;4.10;;
11042;SDS011;5574;48.786;10.120;2023-12-28T09:16:11;7.90;;;4.20;;
11042;SDS011;5574;48.786;10.120;2023-12-28T09:18:39;6.00;;;4.37;;
11042;SDS011;5574;48.786;10.120;2023-12-28T09:21:07;7.43;;;4.30;;
11042;SDS011;5574;48.786;10.120;2023-12-28T09:23:35;5.30;;;4.40;;
11042;SDS011;5574;48.786;10.120;2023-12-28T09:26:02;6.17;;;4.40;;
11042;SDS011;5574;48.786;10.120;2023-12-28T09:28:30;6.23;;;4.73;;
11042;SDS011;5574;48.786;10.120;2023-12-28T09:30:57;5.93;;;3.90;;
11042;SDS011;5574;48.786;10.120;2023-12-28T09:33:25;7.10;;;5.53;;
11042;SDS011;5574;48.786;10.120;2023-12-28T09:35:51;5.63;;;4.50;;
11042;SDS011;5574;48.786;10.120;2023-12-28T09:38:18;6.43;;;4.20;;
11042;SDS011;5574;48.786;10.120;2023-12-28T09:40:46;4.63;;;4.17;;
11042;SDS011;5574;48.786;10.120;2023-12-28T09:43:17;8.13;;;6.57;;
11042;SDS011;5574;48.786;10.120;2023-12-28T09:45:48;10.97;;;4.43;;
11042;SDS011;5574;48.786;10.120;2023-12-28T09:48:14;7.20;;;4.07;;
11042;SDS011;5574;48.786;10.120;2023-12-28T09:50:44;6.47;;;5.83;;
11042;SDS011;5574;48.786;10.120;2023-12-28T09:53:11;7.20;;;4.73;;
11042;SDS011;5574;48.786;10.120;2023-12-28T09:55:38;6.73;;;5.03;;
11042;SDS011;5574;48.786;10.120;2023-12-28T09:58:05;6.40;;;5.80;;
11042;SDS011;5574;48.786;10.120;2023-12-28T10:00:32;6.07;;;4.87;;
11042;SDS011;5574;48.786;10.120;2023-12-28T10:02:59;5.90;;;5.23;;
11042;SDS011;5574;48.786;10.120;2023-12-28T10:05:26;6.53;;;4.83;;
11042;SDS011;5574;48.786;10.120;2023-12-28T10:07:54;6.70;;;4.87;;
11042;SDS011;5574;48.786;10.120;2023-12-28T10:10:22;7.60;;;4.50;;
11042;SDS011;5574;48.786;10.120;2023-12-28T10:12:49;5.57;;;4.87;;
11042;SDS011;5574;48.786;10.120;2023-12-28T10:15:15;7.03;;;4.93;;
11042;SDS011;5574;48.786;10.120;2023-12-28T10:17:42;7.27;;;5.20;;
11042;SDS011;5574;48.786;10.120;2023-12-28T10:20:09;7.23;;;5.10;;
11042;SDS011;5574;48.786;10.120;2023-12-28T10:22:36;5.70;;;4.70;;
11042;SDS011;5574;48.786;10.120;2023-12-28T10:25:05;5.30;;;4.80;;
11042;SDS011;5574;48.786;10.120;2023-12-28T10:27:32;5.87;;;5.30;;
11042;SDS011;5574;48.786;10.120;2023-12-28T10:30:03;7.07;;;5.20;;
11042;SDS011;5574;48.786;10.120;2023-12-28T10:32:30;6.40;;;5.13;;
11042;SDS011;5574;48.786;10.120;2023-12-28T10:34:57;8.27;;;5.30;;
11042;SDS011;5574;48.786;10.120;2023-12-28T10:37:24;7.70;;;5.30;;
11042;SDS011;5574;48.786;10.120;2023-12-28T10:39:53;10.30;;;5.53;;
11042;SDS011;5574;48.786;10.120;2023-12-28T10:42:24;6.23;;;5.63;;
11042;SDS011;5574;48.786;10.120;2023-12-28T10:44:57;7.70;;;5.43;;
11042;SDS011;5574;48.786;10.120;2023-12-28T10:47:31;5.70;;;4.87;;
11042;SDS011;5574;48.786;10.120;2023-12-28T10:50:00;8.33;;;5.13;;
11042;SDS011;5574;48.786;10.120;2023-12-28T10:52:30;6.20;;;4.93;;
11042;SDS011;5574;48.786;10.120;2023-12-28T10:55:00;5.90;;;5.30;;
11042;SDS011;5574;48.786;10.120;2023-12-28T10:57:40;6.90;;;4.90;;
11042;SDS011;5574;48.786;10.120;2023-12-28T11:00:17;6.43;;;5.00;;
11042;SDS011;5574;48.786;10.120;2023-12-28T11:02:51;7.37;;;5.13;;
11042;SDS011;5574;48.786;10.120;2023-12-28T11:05:18;7.07;;;5.70;;
11042;SDS011;5574;48.786;10.120;2023-12-28T11:07:47;7.53;;;5.23;;
11042;SDS011;5574;48.786;10.120;2023-12-28T11:10:17;6.17;;;4.97;;
11042;SDS011;5574;48.786;10.120;2023-12-28T11:12:47;7.40;;;5.27;;
11042;SDS011;5574;48.786;10.120;2023-12-28T11:15:14;6.27;;;5.60;;
11042;SDS011;5574;48.786;10.120;2023-12-28T11:17:41;11.10;;;6.50;;
11042;SDS011;5574;48.786;10.120;2023-12-28T11:20:09;7.30;;;6.20;;
11042;SDS011;5574;48.786;10.120;2023-12-28T11:22:37;7.93;;;5.33;;
11042;SDS011;5574;48.786;10.120;2023-12-28T11:25:04;6.50;;;5.37;;
11042;SDS011;5574;48.786;10.120;2023-12-28T11:27:33;5.57;;;5.07;;
11042;SDS011;5574;48.786;10.120;2023-12-28T11:30:01;8.63;;;6.00;;
11042;SDS011;5574;48.786;10.120;2023-12-28T11:32:31;5.83;;;5.23;;
11042;SDS011;5574;48.786;10.120;2023-12-28T11:34:58;8.27;;;5.67;;
11042;SDS011;5574;48.786;10.120;2023-12-28T11:37:26;8.27;;;5.47;;
11042;SDS011;5574;48.786;10.120;2023-12-28T11:39:55;7.07;;;5.40;;
11042;SDS011;5574;48.786;10.120;2023-12-28T11:42:25;6.37;;;5.77;;
11042;SDS011;5574;48.786;10.120;2023-12-28T11:44:53;6.03;;;4.87;;
11042;SDS011;5574;48.786;10.120;2023-12-28T11:47:22;5.90;;;5.30;;
11042;SDS011;5574;48.786;10.120;2023-12-28T11:49:52;7.60;;;5.40;;
11042;SDS011;5574;48.786;10.120;2023-12-28T11:52:22;5.67;;;5.07;;
11042;SDS011;5574;48.786;10.120;2023-12-28T11:54:50;8.43;;;5.37;;
11042;SDS011;5574;48.786;10.120;2023-12-28T11:57:17;6.10;;;5.50;;
11042;SDS011;5574;48.786;10.120;2023-12-28T11:59:43;5.50;;;5.00;;
11042;SDS011;5574;48.786;10.120;2023-12-28T12:02:10;7.80;;;5.40;;
11042;SDS011;5574;48.786;10.120;2023-12-28T12:04:39;5.77;;;5.17;;
11042;SDS011;5574;48.786;10.120;2023-12-28T12:07:06;6.33;;;4.90;;
11042;SDS011;5574;48.786;10.120;2023-12-28T12:09:32;4.00;;;3.53;;
11042;SDS011;5574;48.786;10.120;2023-12-28T12:11:59;4.73;;;3.53;;
11042;SDS011;5574;48.786;10.120;2023-12-28T12:14:26;3.20;;;2.90;;
11042;SDS011;5574;48.786;10.120;2023-12-28T12:16:53;3.50;;;2.57;;
11042;SDS011;5574;48.786;10.120;2023-12-28T12:19:21;4.93;;;1.97;;
11042;SDS011;5574;48.786;10.120;2023-12-28T12:21:50;2.00;;;1.80;;
11042;SDS011;5574;48.786;10.120;2023-12-28T12:24:17;1.70;;;1.60;;
11042;SDS011;5574;48.786;10.120;2023-12-28T12:26:45;1.50;;;1.40;;
11042;SDS011;5574;48.786;10.120;2023-12-28T12:29:11;1.83;;;1.37;;
11042;SDS011;5574;48.786;10.120;2023-12-28T12:31:39;1.30;;;1.20;;
11042;SDS011;5574;48.786;10.120;2023-12-28T12:34:07;1.80;;;1.40;;
11042;SDS011;5574;48.786;10.120;2023-12-28T14:39:22;2.27;;;2.07;;
11042;SDS011;5574;48.786;10.120;2023-12-28T14:41:48;3.50;;;2.37;;
11042;SDS011;5574;48.786;10.120;2023-12-28T14:44:15;2.83;;;2.50;;
11042;SDS011;5574;48.786;10.120;2023-12-28T14:46:42;2.40;;;2.20;;
11042;SDS011;5574;48.786;10.120;2023-12-28T14:49:08;2.80;;;2.60;;
11042;SDS011;5574;48.786;10.120;2023-12-28T14:51:35;2.70;;;2.50;;
11042;SDS011;5574;48.786;10.120;2023-12-28T14:54:03;3.70;;;2.63;;
11042;SDS011;5574;48.786;10.120;2023-12-28T14:56:32;3.20;;;2.53;;
11042;SDS011;5574;48.786;10.120;2023-12-28T14:58:58;3.00;;;2.70;;
11042;SDS011;5574;48.786;10.120;2023-12-28T15:01:25;3.93;;;2.80;;
11042;SDS011;5574;48.786;10.120;2023-12-28T15:03:52;2.97;;;2.63;;
11042;SDS011;5574;48.786;10.120;2023-12-28T15:06:18;3.10;;;2.80;;
11042;SDS011;5574;48.786;10.120;2023-12-28T15:08:45;4.23;;;3.27;;
11042;SDS011;5574;48.786;10.120;2023-12-28T15:11:12;3.57;;;3.27;;
11042;SDS011;5574;48.786;10.120;2023-12-28T15:13:40;5.57;;;3.70;;
11042;SDS011;5574;48.786;10.120;2023-12-28T15:16:08;5.23;;;4.53;;
11042;SDS011;5574;48.786;10.120;2023-12-28T15:18:37;6.87;;;4.60;;
11042;SDS011;5574;48.786;10.120;2023-12-28T15:21:05;9.47;;;6.10;;
11042;SDS011;5574;48.786;10.120;2023-12-28T15:23:32;10.67;;;8.40;;
11042;SDS011;5574;48.786;10.120;2023-12-28T15:25:59;6.77;;;5.87;;
11042;SDS011;5574;48.786;10.120;2023-12-28T15:28:27;5.77;;;5.20;;
11042;SDS011;5574;48.786;10.120;2023-12-28T15:30:55;6.37;;;5.03;;
11042;SDS011;5574;48.786;10.120;2023-12-28T15:33:21;6.17;;;5.10;;
11042;SDS011;5574;48.786;10.120;2023-12-28T15:35:48;6.50;;;4.60;;
11042;SDS011;5574;48.786;10.120;2023-12-28T15:38:15;6.00;;;5.20;;
11042;SDS011;5574;48.786;10.120;2023-12-28T15:40:43;4.60;;;4.20;;
11042;SDS011;5574;48.786;10.120;2023-12-28T15:43:10;4.80;;;4.17;;
11042;SDS011;5574;48.786;10.120;2023-12-28T15:45:37;4.90;;;4.33;;
11042;SDS011;5574;48.786;10.120;2023-12-28T15:48:05;6.40;;;5.50;;
11042;SDS011;5574;48.786;10.120;2023-12-28T15:50:33;6.47;;;5.50;;
11042;SDS011;5574;48.786;10.120;2023-12-28T15:52:59;5.53;;;4.60;;
11042;SDS011;5574;48.786;10.120;2023-12-28T15:55:26;5.73;;;4.50;;
11042;SDS011;5574;48.786;10.120;2023-12-28T15:57:53;5.40;;;4.33;;
11042;SDS011;5574;48.786;10.120;2023-12-28T16:00:20;4.70;;;4.20;;
11042;SDS011;5574;48.786;10.120;2023-12-28T16:02:46;4.77;;;4.37;;
11042;SDS011;5574;48.786;10.120;2023-12-28T16:05:14;6.10;;;4.40;;
11042;SDS011;5574;48.786;10.120;2023-12-28T16:07:41;8.13;;;5.57;;
11042;SDS011;5574;48.786;10.120;2023-12-28T16:10:08;5.40;;;4.83;;
11042;SDS011;5574;48.786;10.120;2023-12-28T16:12:35;6.37;;;5.20;;
11042;SDS011;5574;48.786;10.120;2023-12-28T16:15:01;5.27;;;4.77;;
11042;SDS011;5574;48.786;10.120;2023-12-28T16:17:29;6.70;;;6.00;;
11042;SDS011;5574;48.786;10.120;2023-12-28T16:19:56;5.93;;;4.50;;
11042;SDS011;5574;48.786;10.120;2023-12-28T16:22:25;5.00;;;4.50;;
11042;SDS011;5574;48.786;10.120;2023-12-28T16:24:52;4.90;;;4.37;;
11042;SDS011;5574;48.786;10.120;2023-12-28T16:27:19;6.77;;;4.30;;
11042;SDS011;5574;48.786;10.120;2023-12-28T16:29:46;4.77;;;4.27;;
11042;SDS011;5574;48.786;10.120;2023-12-28T16:32:11;5.33;;;4.53;;
11042;SDS011;5574;48.786;10.120;2023-12-28T16:34:39;5.23;;;4.67;;
11042;SDS011;5574;48.786;10.120;2023-12-28T16:37:06;5.93;;;5.13;;
11042;SDS011;5574;48.786;10.120;2023-12-28T16:39:34;5.63;;;4.90;;
11042;SDS011;5574;48.786;10.120;2023-12-28T16:42:00;6.50;;;5.90;;
11042;SDS011;5574;48.786;10.120;2023-12-28T16:44:27;6.93;;;6.23;;
11042;SDS011;5574;48.786;10.120;2023-12-28T16:46:54;7.87;;;6.23;;
11042;SDS011;5574;48.786;10.120;2023-12-28T16:49:21;7.47;;;6.00;;
11042;SDS011;5574;48.786;10.120;2023-12-28T16:51:48;7.47;;;6.03;;